sensor_id;sensor_type;location;lat;lon;timestamp;P1;durP1;ratioP1;P2;durP2;ratioP2
70761;SDS011;58360;0.000;0.000;2023-06-01T00:01:27;14.32;;;8.60;;
70761;SDS011;58360;0.000;0.000;2023-06-01T00:03:58;10.35;;;7.35;;
70761;SDS011;58360;0.000;0.000;2023-06-01T00:06:24;14.52;;;8.10;;
70761;SDS011;58360;0.000;0.000;2023-06-01T00:08:54;12.02;;;7.97;;
70761;SDS011;58360;0.000;0.000;2023-06-01T00:11:20;15.77;;;8.38;;
70761;SDS011;58360;0.000;0.000;2023-06-01T00:13:47;14.27;;;7.93;;
70761;SDS011;58360;0.000;0.000;2023-06-01T00:16:13;15.68;;;8.23;;
70761;SDS011;58360;0.000;0.000;2023-06-01T00:18:39;18.55;;;9.30;;
70761;SDS011;58360;0.000;0.000;2023-06-01T00:21:05;16.85;;;8.25;;
70761;SDS011;58360;0.000;0.000;2023-06-01T05:04:39;23.10;;;13.00;;
70761;SDS011;58360;0.000;0.000;2023-06-01T05:07:05;22.98;;;14.20;;
70761;SDS011;58360;0.000;0.000;2023-06-01T05:09:31;21.42;;;11.93;;
70761;SDS011;58360;0.000;0.000;2023-06-01T05:11:57;16.35;;;11.23;;
70761;SDS011;58360;0.000;0.000;2023-06-01T05:14:23;19.17;;;11.70;;
70761;SDS011;58360;0.000;0.000;2023-06-01T05:16:49;16.35;;;10.50;;
70761;SDS011;58360;0.000;0.000;2023-06-01T05:19:17;15.05;;;10.52;;
70761;SDS011;58360;0.000;0.000;2023-06-01T05:21:43;13.90;;;9.82;;
70761;SDS011;58360;0.000;0.000;2023-06-01T05:24:09;19.05;;;9.88;;
70761;SDS011;58360;0.000;0.000;2023-06-01T05:26:35;23.30;;;10.75;;
70761;SDS011;58360;0.000;0.000;2023-06-01T05:31:50;21.63;;;10.90;;
70761;SDS011;58360;0.000;0.000;2023-06-01T05:34:16;22.75;;;13.52;;
70761;SDS011;58360;0.000;0.000;2023-06-01T05:36:42;19.35;;;11.10;;
70761;SDS011;58360;0.000;0.000;2023-06-01T05:39:08;20.42;;;11.00;;
70761;SDS011;58360;0.000;0.000;2023-06-01T05:41:34;19.45;;;11.23;;
70761;SDS011;58360;0.000;0.000;2023-06-01T05:44:00;17.23;;;9.63;;
70761;SDS011;58360;0.000;0.000;2023-06-01T05:46:26;20.17;;;10.07;;
70761;SDS011;58360;0.000;0.000;2023-06-01T05:48:51;17.23;;;10.48;;
70761;SDS011;58360;0.000;0.000;2023-06-01T05:51:17;17.08;;;10.77;;
70761;SDS011;58360;0.000;0.000;2023-06-01T05:53:43;16.70;;;11.63;;
70761;SDS011;58360;0.000;0.000;2023-06-01T05:56:09;16.35;;;10.18;;
70761;SDS011;58360;0.000;0.000;2023-06-01T06:02:01;17.25;;;10.20;;
70761;SDS011;58360;0.000;0.000;2023-06-01T06:07:57;22.92;;;13.63;;
70761;SDS011;58360;0.000;0.000;2023-06-01T06:13:52;19.58;;;13.68;;
70761;SDS011;58360;0.000;0.000;2023-06-01T06:19:29;20.02;;;13.88;;
70761;SDS011;58360;0.000;0.000;2023-06-01T06:21:56;21.52;;;14.38;;
70761;SDS011;58360;0.000;0.000;2023-06-01T06:24:21;23.88;;;14.70;;
70761;SDS011;58360;0.000;0.000;2023-06-01T06:26:47;25.00;;;15.70;;
70761;SDS011;58360;0.000;0.000;2023-06-01T06:29:14;26.83;;;16.35;;
70761;SDS011;58360;0.000;0.000;2023-06-01T06:31:40;22.45;;;15.90;;
70761;SDS011;58360;0.000;0.000;2023-06-01T06:34:06;24.70;;;16.45;;
70761;SDS011;58360;0.000;0.000;2023-06-01T06:36:32;23.20;;;14.38;;
70761;SDS011;58360;0.000;0.000;2023-06-01T06:42:23;21.77;;;13.18;;
70761;SDS011;58360;0.000;0.000;2023-06-01T06:48:20;20.92;;;12.98;;
70761;SDS011;58360;0.000;0.000;2023-06-01T06:54:13;20.40;;;12.15;;
70761;SDS011;58360;0.000;0.000;2023-06-01T06:56:39;22.67;;;14.63;;
70761;SDS011;58360;0.000;0.000;2023-06-01T06:59:05;22.75;;;13.27;;
70761;SDS011;58360;0.000;0.000;2023-06-01T07:10:39;20.85;;;13.05;;
70761;SDS011;58360;0.000;0.000;2023-06-01T07:13:05;22.02;;;12.63;;
70761;SDS011;58360;0.000;0.000;2023-06-01T07:15:31;23.55;;;13.25;;
70761;SDS011;58360;0.000;0.000;2023-06-01T07:17:56;13.55;;;9.50;;
70761;SDS011;58360;0.000;0.000;2023-06-01T07:20:22;17.90;;;9.50;;
70761;SDS011;58360;0.000;0.000;2023-06-01T07:22:48;16.73;;;11.02;;
70761;SDS011;58360;0.000;0.000;2023-06-01T07:25:15;17.20;;;10.52;;
70761;SDS011;58360;0.000;0.000;2023-06-01T07:27:40;14.77;;;10.32;;
70761;SDS011;58360;0.000;0.000;2023-06-01T07:30:08;13.27;;;8.10;;
70761;SDS011;58360;0.000;0.000;2023-06-01T07:32:35;11.77;;;8.90;;
70761;SDS011;58360;0.000;0.000;2023-06-01T07:35:01;15.98;;;8.38;;
70761;SDS011;58360;0.000;0.000;2023-06-01T07:37:29;17.02;;;8.65;;
70761;SDS011;58360;0.000;0.000;2023-06-01T07:39:56;14.35;;;8.38;;
70761;SDS011;58360;0.000;0.000;2023-06-01T07:42:22;12.52;;;8.48;;
70761;SDS011;58360;0.000;0.000;2023-06-01T07:44:48;12.50;;;8.52;;
70761;SDS011;58360;0.000;0.000;2023-06-01T07:47:14;12.73;;;7.43;;
70761;SDS011;58360;0.000;0.000;2023-06-01T07:49:40;14.13;;;7.22;;
70761;SDS011;58360;0.000;0.000;2023-06-01T07:52:05;18.10;;;8.40;;
70761;SDS011;58360;0.000;0.000;2023-06-01T07:54:33;11.75;;;7.03;;
70761;SDS011;58360;0.000;0.000;2023-06-01T07:56:59;15.65;;;7.97;;
70761;SDS011;58360;0.000;0.000;2023-06-01T07:59:26;24.27;;;8.60;;
70761;SDS011;58360;0.000;0.000;2023-06-01T08:01:53;13.73;;;7.20;;
70761;SDS011;58360;0.000;0.000;2023-06-01T08:04:20;13.70;;;7.53;;
70761;SDS011;58360;0.000;0.000;2023-06-01T08:06:46;10.75;;;7.10;;
70761;SDS011;58360;0.000;0.000;2023-06-01T08:09:12;10.68;;;6.78;;
70761;SDS011;58360;0.000;0.000;2023-06-01T08:11:38;15.52;;;7.10;;
70761;SDS011;58360;0.000;0.000;2023-06-01T08:14:04;10.15;;;6.32;;
70761;SDS011;58360;0.000;0.000;2023-06-01T08:16:32;12.00;;;7.40;;
70761;SDS011;58360;0.000;0.000;2023-06-01T08:18:58;11.57;;;6.68;;
70761;SDS011;58360;0.000;0.000;2023-06-01T08:21:24;15.45;;;7.90;;
70761;SDS011;58360;0.000;0.000;2023-06-01T08:23:50;13.00;;;7.00;;
70761;SDS011;58360;0.000;0.000;2023-06-01T08:26:18;21.08;;;7.30;;
70761;SDS011;58360;0.000;0.000;2023-06-01T08:28:44;11.65;;;7.40;;
70761;SDS011;58360;0.000;0.000;2023-06-01T08:31:17;15.35;;;8.07;;
70761;SDS011;58360;0.000;0.000;2023-06-01T08:33:43;11.82;;;8.00;;
70761;SDS011;58360;0.000;0.000;2023-06-01T08:36:10;12.43;;;7.78;;
70761;SDS011;58360;0.000;0.000;2023-06-01T08:38:35;27.58;;;7.68;;
70761;SDS011;58360;0.000;0.000;2023-06-01T08:41:03;19.10;;;7.68;;
70761;SDS011;58360;0.000;0.000;2023-06-01T08:43:35;11.52;;;7.28;;
70761;SDS011;58360;0.000;0.000;2023-06-01T08:46:04;14.45;;;7.55;;
70761;SDS011;58360;0.000;0.000;2023-06-01T08:48:30;10.57;;;6.35;;
70761;SDS011;58360;0.000;0.000;2023-06-01T08:50:57;12.52;;;6.90;;
70761;SDS011;58360;0.000;0.000;2023-06-01T08:53:23;14.88;;;7.35;;
70761;SDS011;58360;0.000;0.000;2023-06-01T08:55:52;13.85;;;7.10;;
70761;SDS011;58360;0.000;0.000;2023-06-01T08:58:18;12.68;;;7.10;;
70761;SDS011;58360;0.000;0.000;2023-06-01T09:00:46;9.95;;;6.90;;
70761;SDS011;58360;0.000;0.000;2023-06-01T09:03:13;14.13;;;6.93;;
70761;SDS011;58360;0.000;0.000;2023-06-01T09:05:39;18.65;;;7.28;;
70761;SDS011;58360;0.000;0.000;2023-06-01T09:08:04;12.60;;;7.38;;
70761;SDS011;58360;0.000;0.000;2023-06-01T09:10:31;11.70;;;7.35;;
70761;SDS011;58360;0.000;0.000;2023-06-01T09:12:56;16.90;;;7.57;;
70761;SDS011;58360;0.000;0.000;2023-06-01T09:15:22;13.77;;;6.97;;
70761;SDS011;58360;0.000;0.000;2023-06-01T09:17:49;17.67;;;8.27;;
70761;SDS011;58360;0.000;0.000;2023-06-01T09:20:37;17.40;;;8.43;;
70761;SDS011;58360;0.000;0.000;2023-06-01T09:23:04;12.60;;;7.13;;
70761;SDS011;58360;0.000;0.000;2023-06-01T09:25:30;15.98;;;7.82;;
70761;SDS011;58360;0.000;0.000;2023-06-01T09:27:58;13.13;;;7.00;;
70761;SDS011;58360;0.000;0.000;2023-06-01T09:30:26;10.38;;;6.95;;
70761;SDS011;58360;0.000;0.000;2023-06-01T09:33:16;14.30;;;7.22;;
70761;SDS011;58360;0.000;0.000;2023-06-01T09:35:46;11.25;;;6.53;;
70761;SDS011;58360;0.000;0.000;2023-06-01T09:38:25;10.48;;;7.03;;
70761;SDS011;58360;0.000;0.000;2023-06-01T09:40:55;13.10;;;7.33;;
70761;SDS011;58360;0.000;0.000;2023-06-01T09:43:22;16.58;;;7.93;;
70761;SDS011;58360;0.000;0.000;2023-06-01T09:46:04;13.68;;;7.28;;
70761;SDS011;58360;0.000;0.000;2023-06-01T09:48:34;13.10;;;6.80;;
70761;SDS011;58360;0.000;0.000;2023-06-01T09:51:01;11.35;;;7.22;;
70761;SDS011;58360;0.000;0.000;2023-06-01T09:53:27;11.10;;;6.20;;
70761;SDS011;58360;0.000;0.000;2023-06-01T09:55:57;11.27;;;6.35;;
70761;SDS011;58360;0.000;0.000;2023-06-01T09:58:23;9.45;;;6.75;;
70761;SDS011;58360;0.000;0.000;2023-06-01T10:00:49;18.20;;;8.30;;
70761;SDS011;58360;0.000;0.000;2023-06-01T10:03:16;35.58;;;12.18;;
70761;SDS011;58360;0.000;0.000;2023-06-01T10:05:43;25.33;;;10.68;;
70761;SDS011;58360;0.000;0.000;2023-06-01T10:08:11;26.83;;;10.30;;
70761;SDS011;58360;0.000;0.000;2023-06-01T10:10:38;15.75;;;8.25;;
70761;SDS011;58360;0.000;0.000;2023-06-01T10:13:04;14.65;;;8.30;;
70761;SDS011;58360;0.000;0.000;2023-06-01T10:15:31;16.05;;;8.07;;
70761;SDS011;58360;0.000;0.000;2023-06-01T10:17:58;13.48;;;6.60;;
70761;SDS011;58360;0.000;0.000;2023-06-01T10:20:25;10.38;;;6.55;;
70761;SDS011;58360;0.000;0.000;2023-06-01T10:22:50;12.52;;;7.25;;
70761;SDS011;58360;0.000;0.000;2023-06-01T10:25:17;9.57;;;7.05;;
70761;SDS011;58360;0.000;0.000;2023-06-01T10:27:51;12.10;;;6.90;;
70761;SDS011;58360;0.000;0.000;2023-06-01T10:30:21;11.07;;;8.02;;
70761;SDS011;58360;0.000;0.000;2023-06-01T10:32:46;13.55;;;6.78;;
70761;SDS011;58360;0.000;0.000;2023-06-01T10:40:45;15.20;;;6.65;;
70761;SDS011;58360;0.000;0.000;2023-06-01T10:46:02;9.57;;;6.20;;
70761;SDS011;58360;0.000;0.000;2023-06-01T10:48:52;10.35;;;6.97;;
70761;SDS011;58360;0.000;0.000;2023-06-01T10:51:20;15.85;;;7.07;;
70761;SDS011;58360;0.000;0.000;2023-06-01T10:53:47;11.88;;;6.07;;
70761;SDS011;58360;0.000;0.000;2023-06-01T10:56:22;10.10;;;6.10;;
70761;SDS011;58360;0.000;0.000;2023-06-01T10:59:10;12.40;;;6.78;;
70761;SDS011;58360;0.000;0.000;2023-06-01T11:01:42;10.52;;;6.28;;
70761;SDS011;58360;0.000;0.000;2023-06-01T11:04:08;15.15;;;6.97;;
70761;SDS011;58360;0.000;0.000;2023-06-01T11:06:36;13.25;;;6.65;;
70761;SDS011;58360;0.000;0.000;2023-06-01T11:09:05;15.63;;;6.55;;
70761;SDS011;58360;0.000;0.000;2023-06-01T11:14:26;9.57;;;7.35;;
70761;SDS011;58360;0.000;0.000;2023-06-01T11:16:56;10.70;;;6.88;;
70761;SDS011;58360;0.000;0.000;2023-06-01T11:19:56;11.32;;;6.78;;
70761;SDS011;58360;0.000;0.000;2023-06-01T11:22:23;10.50;;;6.10;;
70761;SDS011;58360;0.000;0.000;2023-06-01T11:24:51;11.57;;;6.72;;
70761;SDS011;58360;0.000;0.000;2023-06-01T11:27:19;11.02;;;7.70;;
70761;SDS011;58360;0.000;0.000;2023-06-01T11:29:49;13.10;;;7.68;;
70761;SDS011;58360;0.000;0.000;2023-06-01T11:32:15;10.52;;;6.30;;
70761;SDS011;58360;0.000;0.000;2023-06-01T11:34:45;12.23;;;7.00;;
70761;SDS011;58360;0.000;0.000;2023-06-01T11:37:17;9.75;;;6.30;;
70761;SDS011;58360;0.000;0.000;2023-06-01T11:39:44;13.15;;;8.02;;
70761;SDS011;58360;0.000;0.000;2023-06-01T11:44:46;12.90;;;7.55;;
70761;SDS011;58360;0.000;0.000;2023-06-01T11:47:21;15.32;;;8.93;;
70761;SDS011;58360;0.000;0.000;2023-06-01T11:49:48;18.13;;;8.48;;
70761;SDS011;58360;0.000;0.000;2023-06-01T11:52:15;13.35;;;8.20;;
70761;SDS011;58360;0.000;0.000;2023-06-01T11:54:42;13.05;;;7.70;;
70761;SDS011;58360;0.000;0.000;2023-06-01T11:57:08;12.50;;;8.45;;
70761;SDS011;58360;0.000;0.000;2023-06-01T12:02:21;12.10;;;7.78;;
70761;SDS011;58360;0.000;0.000;2023-06-01T12:05:02;13.98;;;8.63;;
70761;SDS011;58360;0.000;0.000;2023-06-01T12:07:31;13.15;;;8.80;;
70761;SDS011;58360;0.000;0.000;2023-06-01T12:10:08;13.68;;;8.57;;
70761;SDS011;58360;0.000;0.000;2023-06-01T12:12:35;13.18;;;7.97;;
70761;SDS011;58360;0.000;0.000;2023-06-01T12:15:02;15.80;;;8.10;;
70761;SDS011;58360;0.000;0.000;2023-06-01T12:17:49;19.63;;;9.65;;
70761;SDS011;58360;0.000;0.000;2023-06-01T12:22:52;12.90;;;7.90;;
70761;SDS011;58360;0.000;0.000;2023-06-01T12:25:20;11.82;;;7.43;;
70761;SDS011;58360;0.000;0.000;2023-06-01T12:28:03;11.98;;;7.88;;
70761;SDS011;58360;0.000;0.000;2023-06-01T12:30:33;16.33;;;8.02;;
70761;SDS011;58360;0.000;0.000;2023-06-01T12:32:59;10.77;;;7.40;;
70761;SDS011;58360;0.000;0.000;2023-06-01T12:35:25;13.50;;;6.80;;
70761;SDS011;58360;0.000;0.000;2023-06-01T12:40:38;17.63;;;8.00;;
70761;SDS011;58360;0.000;0.000;2023-06-01T12:43:04;15.52;;;8.27;;
70761;SDS011;58360;0.000;0.000;2023-06-01T12:45:41;15.63;;;8.07;;
70761;SDS011;58360;0.000;0.000;2023-06-01T12:48:07;13.27;;;7.07;;
70761;SDS011;58360;0.000;0.000;2023-06-01T12:50:32;11.88;;;6.22;;
70761;SDS011;58360;0.000;0.000;2023-06-01T12:52:58;11.95;;;6.32;;
70761;SDS011;58360;0.000;0.000;2023-06-01T12:55:24;10.50;;;6.40;;
70761;SDS011;58360;0.000;0.000;2023-06-01T12:57:53;9.93;;;6.43;;
70761;SDS011;58360;0.000;0.000;2023-06-01T13:00:20;15.02;;;6.72;;
70761;SDS011;58360;0.000;0.000;2023-06-01T13:02:46;10.43;;;6.43;;
70761;SDS011;58360;0.000;0.000;2023-06-01T13:05:15;12.82;;;5.88;;
70761;SDS011;58360;0.000;0.000;2023-06-01T13:07:42;12.35;;;6.30;;
70761;SDS011;58360;0.000;0.000;2023-06-01T13:10:08;10.35;;;5.80;;
70761;SDS011;58360;0.000;0.000;2023-06-01T13:12:35;13.40;;;6.65;;
70761;SDS011;58360;0.000;0.000;2023-06-01T13:15:01;9.80;;;5.22;;
70761;SDS011;58360;0.000;0.000;2023-06-01T13:17:28;12.80;;;5.82;;
70761;SDS011;58360;0.000;0.000;2023-06-01T13:19:54;8.43;;;5.43;;
70761;SDS011;58360;0.000;0.000;2023-06-01T13:22:20;12.13;;;5.57;;
70761;SDS011;58360;0.000;0.000;2023-06-01T13:24:46;10.05;;;5.03;;
70761;SDS011;58360;0.000;0.000;2023-06-01T13:27:12;10.90;;;5.05;;
70761;SDS011;58360;0.000;0.000;2023-06-01T13:29:38;14.45;;;5.65;;
70761;SDS011;58360;0.000;0.000;2023-06-01T13:32:04;7.75;;;4.43;;
70761;SDS011;58360;0.000;0.000;2023-06-01T13:34:30;12.13;;;5.75;;
70761;SDS011;58360;0.000;0.000;2023-06-01T13:36:56;11.32;;;5.35;;
70761;SDS011;58360;0.000;0.000;2023-06-01T13:39:22;23.17;;;5.57;;
70761;SDS011;58360;0.000;0.000;2023-06-01T13:41:48;9.00;;;4.93;;
70761;SDS011;58360;0.000;0.000;2023-06-01T13:44:14;15.90;;;5.30;;
70761;SDS011;58360;0.000;0.000;2023-06-01T13:46:40;11.65;;;5.55;;
70761;SDS011;58360;0.000;0.000;2023-06-01T13:49:05;9.38;;;4.97;;
70761;SDS011;58360;0.000;0.000;2023-06-01T13:51:32;9.70;;;5.00;;
70761;SDS011;58360;0.000;0.000;2023-06-01T13:53:58;9.30;;;5.13;;
70761;SDS011;58360;0.000;0.000;2023-06-01T13:56:24;9.60;;;4.97;;
70761;SDS011;58360;0.000;0.000;2023-06-01T13:58:50;9.48;;;4.90;;
70761;SDS011;58360;0.000;0.000;2023-06-01T14:01:15;10.27;;;5.30;;
70761;SDS011;58360;0.000;0.000;2023-06-01T14:03:41;9.20;;;4.88;;
70761;SDS011;58360;0.000;0.000;2023-06-01T14:06:07;10.57;;;5.55;;
70761;SDS011;58360;0.000;0.000;2023-06-01T14:08:33;14.80;;;5.80;;
70761;SDS011;58360;0.000;0.000;2023-06-01T14:10:59;9.18;;;5.65;;
70761;SDS011;58360;0.000;0.000;2023-06-01T14:13:26;8.93;;;5.32;;
70761;SDS011;58360;0.000;0.000;2023-06-01T14:15:51;9.65;;;5.30;;
70761;SDS011;58360;0.000;0.000;2023-06-01T14:18:17;22.08;;;5.82;;
70761;SDS011;58360;0.000;0.000;2023-06-01T14:20:43;14.60;;;6.13;;
70761;SDS011;58360;0.000;0.000;2023-06-01T14:23:08;12.35;;;6.25;;
70761;SDS011;58360;0.000;0.000;2023-06-01T14:25:36;12.52;;;6.28;;
70761;SDS011;58360;0.000;0.000;2023-06-01T14:28:02;9.95;;;5.72;;
70761;SDS011;58360;0.000;0.000;2023-06-01T14:30:27;9.63;;;5.43;;
70761;SDS011;58360;0.000;0.000;2023-06-01T14:32:53;12.00;;;6.20;;
70761;SDS011;58360;0.000;0.000;2023-06-01T14:35:19;15.00;;;6.20;;
70761;SDS011;58360;0.000;0.000;2023-06-01T14:37:45;10.30;;;5.35;;
70761;SDS011;58360;0.000;0.000;2023-06-01T14:40:11;11.45;;;5.72;;
70761;SDS011;58360;0.000;0.000;2023-06-01T14:42:37;24.23;;;5.72;;
70761;SDS011;58360;0.000;0.000;2023-06-01T14:45:04;9.45;;;5.55;;
70761;SDS011;58360;0.000;0.000;2023-06-01T14:47:30;10.82;;;5.72;;
70761;SDS011;58360;0.000;0.000;2023-06-01T14:49:55;15.07;;;6.72;;
70761;SDS011;58360;0.000;0.000;2023-06-01T14:52:21;12.88;;;7.40;;
70761;SDS011;58360;0.000;0.000;2023-06-01T14:54:47;14.68;;;6.30;;
70761;SDS011;58360;0.000;0.000;2023-06-01T14:57:13;11.90;;;5.88;;
70761;SDS011;58360;0.000;0.000;2023-06-01T14:59:40;12.30;;;5.63;;
70761;SDS011;58360;0.000;0.000;2023-06-01T15:02:06;11.10;;;6.15;;
70761;SDS011;58360;0.000;0.000;2023-06-01T15:04:32;13.13;;;6.30;;
70761;SDS011;58360;0.000;0.000;2023-06-01T15:06:58;14.35;;;6.35;;
70761;SDS011;58360;0.000;0.000;2023-06-01T15:09:24;14.23;;;6.63;;
70761;SDS011;58360;0.000;0.000;2023-06-01T15:11:50;11.05;;;6.60;;
70761;SDS011;58360;0.000;0.000;2023-06-01T15:14:16;16.42;;;6.25;;
70761;SDS011;58360;0.000;0.000;2023-06-01T15:16:42;12.77;;;6.35;;
70761;SDS011;58360;0.000;0.000;2023-06-01T15:19:07;11.52;;;6.57;;
70761;SDS011;58360;0.000;0.000;2023-06-01T15:21:33;11.93;;;6.57;;
70761;SDS011;58360;0.000;0.000;2023-06-01T15:23:59;11.68;;;6.10;;
70761;SDS011;58360;0.000;0.000;2023-06-01T15:26:25;10.60;;;5.78;;
70761;SDS011;58360;0.000;0.000;2023-06-01T15:28:51;14.60;;;6.93;;
70761;SDS011;58360;0.000;0.000;2023-06-01T15:31:16;13.70;;;6.78;;
70761;SDS011;58360;0.000;0.000;2023-06-01T15:33:42;10.15;;;5.57;;
70761;SDS011;58360;0.000;0.000;2023-06-01T15:36:08;11.40;;;6.20;;
70761;SDS011;58360;0.000;0.000;2023-06-01T15:38:33;13.45;;;5.95;;
70761;SDS011;58360;0.000;0.000;2023-06-01T15:41:00;16.58;;;6.45;;
70761;SDS011;58360;0.000;0.000;2023-06-01T15:43:27;13.40;;;6.30;;
70761;SDS011;58360;0.000;0.000;2023-06-01T15:45:52;11.48;;;6.68;;
70761;SDS011;58360;0.000;0.000;2023-06-01T15:48:18;11.80;;;6.93;;
70761;SDS011;58360;0.000;0.000;2023-06-01T15:50:44;14.20;;;6.60;;
70761;SDS011;58360;0.000;0.000;2023-06-01T15:53:09;13.30;;;7.55;;
70761;SDS011;58360;0.000;0.000;2023-06-01T15:55:35;14.27;;;6.72;;
70761;SDS011;58360;0.000;0.000;2023-06-01T15:58:01;14.68;;;7.30;;
70761;SDS011;58360;0.000;0.000;2023-06-01T16:00:27;13.90;;;6.65;;
70761;SDS011;58360;0.000;0.000;2023-06-01T16:02:53;13.25;;;7.05;;
70761;SDS011;58360;0.000;0.000;2023-06-01T16:05:18;10.45;;;7.15;;
70761;SDS011;58360;0.000;0.000;2023-06-01T16:07:45;12.60;;;6.95;;
70761;SDS011;58360;0.000;0.000;2023-06-01T16:10:10;18.10;;;8.07;;
70761;SDS011;58360;0.000;0.000;2023-06-01T16:12:38;16.65;;;7.82;;
70761;SDS011;58360;0.000;0.000;2023-06-01T16:15:04;14.77;;;8.45;;
70761;SDS011;58360;0.000;0.000;2023-06-01T16:17:30;17.85;;;7.68;;
70761;SDS011;58360;0.000;0.000;2023-06-01T16:19:56;21.23;;;8.48;;
70761;SDS011;58360;0.000;0.000;2023-06-01T16:22:21;12.90;;;7.03;;
70761;SDS011;58360;0.000;0.000;2023-06-01T16:24:47;12.48;;;7.32;;
70761;SDS011;58360;0.000;0.000;2023-06-01T16:27:13;15.27;;;6.57;;
70761;SDS011;58360;0.000;0.000;2023-06-01T16:29:39;13.25;;;6.82;;
70761;SDS011;58360;0.000;0.000;2023-06-01T16:32:05;13.38;;;7.05;;
70761;SDS011;58360;0.000;0.000;2023-06-01T16:34:31;16.85;;;7.50;;
70761;SDS011;58360;0.000;0.000;2023-06-01T16:36:56;17.08;;;7.65;;
70761;SDS011;58360;0.000;0.000;2023-06-01T16:39:22;13.70;;;7.97;;
70761;SDS011;58360;0.000;0.000;2023-06-01T16:41:48;12.65;;;7.05;;
70761;SDS011;58360;0.000;0.000;2023-06-01T16:44:13;16.77;;;7.22;;
70761;SDS011;58360;0.000;0.000;2023-06-01T16:46:39;14.98;;;7.18;;
70761;SDS011;58360;0.000;0.000;2023-06-01T16:49:05;11.18;;;6.43;;
70761;SDS011;58360;0.000;0.000;2023-06-01T16:51:31;13.90;;;6.35;;
70761;SDS011;58360;0.000;0.000;2023-06-01T16:53:57;12.27;;;6.97;;
70761;SDS011;58360;0.000;0.000;2023-06-01T16:56:23;14.05;;;7.25;;
70761;SDS011;58360;0.000;0.000;2023-06-01T16:58:49;12.80;;;6.38;;
70761;SDS011;58360;0.000;0.000;2023-06-01T17:01:14;13.45;;;6.05;;
70761;SDS011;58360;0.000;0.000;2023-06-01T17:03:40;14.75;;;6.57;;
70761;SDS011;58360;0.000;0.000;2023-06-01T17:06:06;11.90;;;6.85;;
70761;SDS011;58360;0.000;0.000;2023-06-01T17:08:32;14.27;;;7.03;;
70761;SDS011;58360;0.000;0.000;2023-06-01T17:10:57;11.43;;;7.00;;
70761;SDS011;58360;0.000;0.000;2023-06-01T17:13:23;14.07;;;6.75;;
70761;SDS011;58360;0.000;0.000;2023-06-01T17:15:50;12.73;;;5.82;;
70761;SDS011;58360;0.000;0.000;2023-06-01T17:18:16;10.95;;;5.00;;
70761;SDS011;58360;0.000;0.000;2023-06-01T17:20:42;12.93;;;5.90;;
70761;SDS011;58360;0.000;0.000;2023-06-01T17:23:07;10.20;;;5.57;;
70761;SDS011;58360;0.000;0.000;2023-06-01T17:25:33;13.48;;;6.82;;
70761;SDS011;58360;0.000;0.000;2023-06-01T17:27:59;12.98;;;5.47;;
70761;SDS011;58360;0.000;0.000;2023-06-01T17:30:24;11.38;;;5.05;;
70761;SDS011;58360;0.000;0.000;2023-06-01T17:32:51;10.32;;;5.30;;
70761;SDS011;58360;0.000;0.000;2023-06-01T17:35:17;8.20;;;4.78;;
70761;SDS011;58360;0.000;0.000;2023-06-01T17:37:42;8.73;;;4.72;;
70761;SDS011;58360;0.000;0.000;2023-06-01T17:40:08;8.70;;;4.35;;
70761;SDS011;58360;0.000;0.000;2023-06-01T17:42:34;8.95;;;4.13;;
70761;SDS011;58360;0.000;0.000;2023-06-01T17:45:00;7.40;;;3.30;;
70761;SDS011;58360;0.000;0.000;2023-06-01T17:47:26;9.38;;;4.10;;
70761;SDS011;58360;0.000;0.000;2023-06-01T17:49:51;8.40;;;3.50;;
70761;SDS011;58360;0.000;0.000;2023-06-01T17:52:18;8.07;;;3.25;;
70761;SDS011;58360;0.000;0.000;2023-06-01T17:54:44;12.50;;;3.80;;
70761;SDS011;58360;0.000;0.000;2023-06-01T17:57:10;9.50;;;3.10;;
70761;SDS011;58360;0.000;0.000;2023-06-01T17:59:39;9.95;;;3.95;;
70761;SDS011;58360;0.000;0.000;2023-06-01T18:02:07;7.72;;;3.28;;
70761;SDS011;58360;0.000;0.000;2023-06-01T18:04:33;7.10;;;3.38;;
70761;SDS011;58360;0.000;0.000;2023-06-01T18:07:01;5.93;;;2.80;;
70761;SDS011;58360;0.000;0.000;2023-06-01T18:09:27;10.85;;;3.10;;
70761;SDS011;58360;0.000;0.000;2023-06-01T18:11:54;7.25;;;3.13;;
70761;SDS011;58360;0.000;0.000;2023-06-01T18:14:21;10.52;;;2.83;;
70761;SDS011;58360;0.000;0.000;2023-06-01T18:16:47;7.50;;;3.17;;
70761;SDS011;58360;0.000;0.000;2023-06-01T18:19:13;8.18;;;2.92;;
70761;SDS011;58360;0.000;0.000;2023-06-01T18:21:39;8.63;;;3.30;;
70761;SDS011;58360;0.000;0.000;2023-06-01T18:24:06;10.45;;;3.47;;
70761;SDS011;58360;0.000;0.000;2023-06-01T18:26:32;4.93;;;2.55;;
70761;SDS011;58360;0.000;0.000;2023-06-01T18:28:58;5.90;;;2.80;;
70761;SDS011;58360;0.000;0.000;2023-06-01T18:31:26;6.65;;;3.35;;
70761;SDS011;58360;0.000;0.000;2023-06-01T18:33:52;10.32;;;2.83;;
70761;SDS011;58360;0.000;0.000;2023-06-01T18:36:18;12.75;;;2.72;;
70761;SDS011;58360;0.000;0.000;2023-06-01T18:38:45;7.30;;;3.10;;
70761;SDS011;58360;0.000;0.000;2023-06-01T18:41:14;8.68;;;3.40;;
70761;SDS011;58360;0.000;0.000;2023-06-01T18:43:40;6.60;;;2.80;;
70761;SDS011;58360;0.000;0.000;2023-06-01T18:46:06;5.30;;;3.17;;
70761;SDS011;58360;0.000;0.000;2023-06-01T18:48:33;10.20;;;3.95;;
70761;SDS011;58360;0.000;0.000;2023-06-01T18:51:02;10.18;;;3.65;;
70761;SDS011;58360;0.000;0.000;2023-06-01T18:53:32;5.65;;;3.42;;
70761;SDS011;58360;0.000;0.000;2023-06-01T18:56:00;13.20;;;3.50;;
70761;SDS011;58360;0.000;0.000;2023-06-01T18:58:25;10.10;;;3.17;;
70761;SDS011;58360;0.000;0.000;2023-06-01T19:00:52;9.43;;;3.45;;
70761;SDS011;58360;0.000;0.000;2023-06-01T19:03:18;8.98;;;3.15;;
70761;SDS011;58360;0.000;0.000;2023-06-01T19:05:44;7.55;;;3.38;;
70761;SDS011;58360;0.000;0.000;2023-06-01T19:08:19;9.65;;;3.75;;
70761;SDS011;58360;0.000;0.000;2023-06-01T19:13:34;8.88;;;4.03;;
70761;SDS011;58360;0.000;0.000;2023-06-01T19:16:12;9.23;;;3.70;;
70761;SDS011;58360;0.000;0.000;2023-06-01T19:18:58;14.10;;;3.50;;
70761;SDS011;58360;0.000;0.000;2023-06-01T19:21:27;7.72;;;3.22;;
70761;SDS011;58360;0.000;0.000;2023-06-01T19:23:59;7.35;;;4.00;;
70761;SDS011;58360;0.000;0.000;2023-06-01T19:26:43;10.90;;;3.80;;
70761;SDS011;58360;0.000;0.000;2023-06-01T19:29:12;8.90;;;3.60;;
70761;SDS011;58360;0.000;0.000;2023-06-01T19:31:42;13.60;;;4.03;;
70761;SDS011;58360;0.000;0.000;2023-06-01T19:34:10;6.65;;;3.33;;
70761;SDS011;58360;0.000;0.000;2023-06-01T19:41:48;8.85;;;4.00;;
70761;SDS011;58360;0.000;0.000;2023-06-01T19:44:15;7.90;;;3.65;;
70761;SDS011;58360;0.000;0.000;2023-06-01T19:46:43;8.23;;;3.35;;
70761;SDS011;58360;0.000;0.000;2023-06-01T19:49:13;11.23;;;3.70;;
70761;SDS011;58360;0.000;0.000;2023-06-01T19:51:41;10.82;;;3.75;;
70761;SDS011;58360;0.000;0.000;2023-06-01T19:54:07;9.75;;;3.72;;
70761;SDS011;58360;0.000;0.000;2023-06-01T19:56:39;10.15;;;3.58;;
70761;SDS011;58360;0.000;0.000;2023-06-01T19:59:10;7.95;;;3.53;;
70761;SDS011;58360;0.000;0.000;2023-06-01T20:01:41;6.45;;;3.00;;
70761;SDS011;58360;0.000;0.000;2023-06-01T20:04:07;8.50;;;3.88;;
70761;SDS011;58360;0.000;0.000;2023-06-01T20:06:36;8.68;;;3.70;;
70761;SDS011;58360;0.000;0.000;2023-06-01T20:09:14;7.25;;;3.40;;
70761;SDS011;58360;0.000;0.000;2023-06-01T20:11:43;10.82;;;3.90;;
70761;SDS011;58360;0.000;0.000;2023-06-01T20:16:46;8.90;;;3.60;;
70761;SDS011;58360;0.000;0.000;2023-06-01T20:19:14;7.03;;;3.45;;
70761;SDS011;58360;0.000;0.000;2023-06-01T20:22:00;5.85;;;3.03;;
70761;SDS011;58360;0.000;0.000;2023-06-01T20:24:29;10.63;;;3.58;;
70761;SDS011;58360;0.000;0.000;2023-06-01T20:26:58;14.82;;;4.00;;
70761;SDS011;58360;0.000;0.000;2023-06-01T20:29:32;8.18;;;3.10;;
70761;SDS011;58360;0.000;0.000;2023-06-01T20:32:00;11.15;;;3.25;;
70761;SDS011;58360;0.000;0.000;2023-06-01T20:34:28;7.05;;;3.53;;
70761;SDS011;58360;0.000;0.000;2023-06-01T20:36:56;8.18;;;3.28;;
70761;SDS011;58360;0.000;0.000;2023-06-01T20:39:22;10.38;;;3.90;;